Time;durP1;ratioP1;P1;durP2;ratioP2;P2;SDS_P1;SDS_P2;PMS_P1;PMS_P2;Temp;Humidity;BMP_temperature;BMP_pressure;BME280_temperature;BME280_humidity;BME280_pressure;Samples;Min_cycle;Max_cycle;Signal;HPM_P1;HPM_P2
2023/03/04 00:00:48;;;;;;;;;;;;;;;;;;4961628;28;19917;-68
2023/03/04 00:03:17;;;;;;;;;;;;;;;;;;4979217;28;20616;-67
2023/03/04 00:05:42;;;;;;;;;;;;;;;;;;4967236;28;19921;-67
2023/03/04 00:08:07;;;;;;;;;;;;;;;;;;4966159;28;19944;-68
2023/03/04 00:10:33;;;;;;;;;;;;;;;;;;4977581;28;19936;-68
2023/03/04 00:12:58;;;;;;;;;;;;;;;;;;4993590;28;20275;-68
2023/03/04 00:15:23;;;;;;;;;;;;;;;;;;4976303;28;20866;-67
2023/03/04 00:17:48;;;;;;;;;;;;;;;;;;4977136;28;20200;-67
2023/03/04 00:20:14;;;;;;;;;;;;;;;;;;4995382;28;20074;-67
2023/03/04 00:22:39;;;;;;;;;;;;;;;;;;4968276;28;20266;-67
2023/03/04 00:25:07;;;;;;;;;;;;;;;;;;4977423;28;19918;-67
2023/03/04 00:27:35;;;;;;;;;;;;;;;;;;4985536;28;19932;-66
2023/03/04 00:30:02;;;;;;;;;;;;;;;;;;4978075;28;19921;-65
2023/03/04 00:32:28;;;;;;;;;;;;;;;;;;4977641;28;20064;-67
2023/03/04 00:34:53;;;;;;;;;;;;;;;;;;4968754;28;19921;-67
2023/03/04 00:37:19;;;;;;;;;;;;;;;;;;4961379;28;19921;-67
2023/03/04 00:39:47;;;;;;;;;;;;;;;;;;4979145;28;20826;-67
2023/03/04 00:42:12;;;;;;;;;;;;;;;;;;4975241;28;19925;-67
2023/03/04 00:44:37;;;;;;;;;;;;;;;;;;4960556;28;19917;-68
2023/03/04 00:47:05;;;;;;;;;;;;;;;;;;4975569;28;20330;-67
2023/03/04 00:49:40;;;;;;;;;;;;;;;;;;4976709;28;19925;-67
2023/03/04 00:52:05;;;;;;;;;;;;;;;;;;4976303;28;20130;-67
2023/03/04 00:54:30;;;;;;;;;;;;;;;;;;4975175;28;20756;-66
2023/03/04 00:56:58;;;;;;;;;;;;;;;;;;4995521;28;19949;-65
2023/03/04 00:59:26;;;;;;;;;;;;;;;;;;4976766;28;19928;-66
2023/03/04 01:01:51;;;;;;;;;;;;;;;;;;4980077;28;19933;-67
2023/03/04 01:04:19;;;;;;;;;;;;;;;;;;4961115;28;19921;-67
2023/03/04 01:06:47;;;;;;;;;;;;;;;;;;4995448;28;19925;-66
2023/03/04 01:09:13;;;;;;;;;;;;;;;;;;4996385;28;19921;-66
2023/03/04 01:11:41;;;;;;;;;;;;;;;;;;4961930;28;20008;-67
2023/03/04 01:14:09;;;;;;;;;;;;;;;;;;4995092;28;20031;-67
2023/03/04 01:16:39;;;;;;;;;;;;;;;;;;4967057;28;20180;-68
2023/03/04 01:19:05;;;;;;;;;;;;;;;;;;4963051;28;20343;-67
2023/03/04 01:21:30;;;;;;;;;;;;;;;;;;4995484;28;20569;-66
2023/03/04 01:23:56;;;;;;;;;;;;;;;;;;4976927;28;20075;-66
2023/03/04 01:26:24;;;;;;;;;;;;;;;;;;4976145;28;19921;-66
2023/03/04 01:28:52;;;;;;;;;;;;;;;;;;4995423;28;19925;-67
2023/03/04 01:31:17;;;;;;;;;;;;;;;;;;4994466;28;20441;-67
2023/03/04 01:33:43;;;;;;;;;;;;;;;;;;4959301;28;19918;-67
2023/03/04 01:36:08;;;;;;;;;;;;;;;;;;4983294;28;19925;-67
2023/03/04 01:38:33;;;;;;;;;;;;;;;;;;4995960;28;19918;-67
2023/03/04 01:40:58;;;;;;;;;;;;;;;;;;4994484;28;19940;-66
2023/03/04 01:43:24;;;;;;;;;;;;;;;;;;4976829;28;20411;-67
2023/03/04 01:45:49;;;;;;;;;;;;;;;;;;4978078;28;19917;-65
2023/03/04 01:48:17;;;;;;;;;;;;;;;;;;4997758;28;19933;-66
2023/03/04 01:50:42;;;;;;;;;;;;;;;;;;4981503;28;19953;-66
2023/03/04 01:53:10;;;;;;;;;;;;;;;;;;4964413;28;19975;-67
2023/03/04 01:55:38;;;;;;;;;;;;;;;;;;4998430;28;19921;-66
2023/03/04 01:58:04;;;;;;;;;;;;;;;;;;4977974;28;20024;-67
2023/03/04 02:00:30;;;;;;;;;;;;;;;;;;4966247;28;19917;-67
2023/03/04 02:02:55;;;;;;;;;;;;;;;;;;4980503;28;20436;-66
2023/03/04 02:05:21;;;;;;;;;;;;;;;;;;4963727;28;19988;-67
2023/03/04 02:07:46;;;;;;;;;;;;;;;;;;4981039;28;20536;-66
2023/03/04 02:10:11;;;;;;;;;;;;;;;;;;4998398;28;19917;-66
2023/03/04 02:12:39;;;;;;;;;;;;;;;;;;4997906;28;20398;-68
2023/03/04 02:15:04;;;;;;;;;;;;;;;;;;4969609;28;19921;-67
2023/03/04 02:17:32;;;;;;;;;;;;;;;;;;4981166;28;19926;-67
2023/03/04 02:20:00;;;;;;;;;;;;;;;;;;4998489;28;20000;-67
2023/03/04 02:22:25;;;;;;;;;;;;;;;;;;4980603;28;20433;-67
2023/03/04 02:24:50;;;;;;;;;;;;;;;;;;4979366;28;20019;-67
2023/03/04 02:27:16;;;;;;;;;;;;;;;;;;4980952;28;19921;-67
2023/03/04 02:29:41;;;;;;;;;;;;;;;;;;4997284;28;19922;-67
2023/03/04 02:32:09;;;;;;;;;;;;;;;;;;4980317;28;20016;-67
2023/03/04 02:34:35;;;;;;;;;;;;;;;;;;4980073;28;19925;-65
2023/03/04 02:37:01;;;;;;;;;;;;;;;;;;4996935;28;20439;-64
2023/03/04 02:39:26;;;;;;;;;;;;;;;;;;4979666;28;20012;-66
2023/03/04 02:41:54;;;;;;;;;;;;;;;;;;4993404;28;20043;-66
2023/03/04 02:44:22;;;;;;;;;;;;;;;;;;4983662;28;20044;-66
2023/03/04 02:46:47;;;;;;;;;;;;;;;;;;4975585;28;19967;-66
2023/03/04 02:49:13;;;;;;;;;;;;;;;;;;4962872;28;20453;-66
2023/03/04 02:51:41;;;;;;;;;;;;;;;;;;4998262;28;19917;-66
2023/03/04 02:54:06;;;;;;;;;;;;;;;;;;4977211;28;20435;-66
2023/03/04 02:56:31;;;;;;;;;;;;;;;;;;4976998;28;20064;-67
2023/03/04 02:58:57;;;;;;;;;;;;;;;;;;4978652;28;19940;-65
2023/03/04 03:01:22;;;;;;;;;;;;;;;;;;4959697;28;19928;-66
2023/03/04 03:03:47;;;;;;;;;;;;;;;;;;4993341;28;20320;-66
2023/03/04 03:06:12;;;;;;;;;;;;;;;;;;4962110;28;20292;-67
2023/03/04 03:08:40;;;;;;;;;;;;;;;;;;4978918;28;19922;-67
2023/03/04 03:11:09;;;;;;;;;;;;;;;;;;4994917;28;21618;-67
2023/03/04 03:13:34;;;;;;;;;;;;;;;;;;4985204;28;20365;-65
2023/03/04 03:16:05;;;;;;;;;;;;;;;;;;4980950;28;19921;-66
2023/03/04 03:18:33;;;;;;;;;;;;;;;;;;4996297;28;19968;-66
2023/03/04 03:21:03;;;;;;;;;;;;;;;;;;4997679;28;19932;-66
2023/03/04 03:23:28;;;;;;;;;;;;;;;;;;4984048;28;19921;-66
2023/03/04 03:25:56;;;;;;;;;;;;;;;;;;4995983;28;20402;-66
2023/03/04 03:28:22;;;;;;;;;;;;;;;;;;4976902;28;20466;-66
2023/03/04 03:30:47;;;;;;;;;;;;;;;;;;4975582;28;19925;-65
2023/03/04 03:33:15;;;;;;;;;;;;;;;;;;4984847;28;22134;-66
2023/03/04 03:35:41;;;;;;;;;;;;;;;;;;4979741;28;19921;-67
2023/03/04 03:38:07;;;;;;;;;;;;;;;;;;4997495;28;20181;-67
2023/03/04 03:40:32;;;;;;;;;;;;;;;;;;4960432;28;20332;-66
2023/03/04 03:42:57;;;;;;;;;;;;;;;;;;4976386;28;19926;-66
2023/03/04 03:45:22;;;;;;;;;;;;;;;;;;4979384;28;19921;-66
2023/03/04 03:47:52;;;;;;;;;;;;;;;;;;4995267;28;20036;-67
2023/03/04 03:50:18;;;;;;;;;;;;;;;;;;4977841;28;19921;-67
2023/03/04 03:52:46;;;;;;;;;;;;;;;;;;4967922;28;19928;-67
2023/03/04 03:55:13;;;;;;;;;;;;;;;;;;4962874;28;19921;-65
2023/03/04 03:57:44;;;;;;;;;;;;;;;;;;4984074;28;19929;-66
2023/03/04 04:00:09;;;;;;;;;;;;;;;;;;4979089;28;20324;-66
2023/03/04 04:02:35;;;;;;;;;;;;;;;;;;4984142;28;19920;-66
2023/03/04 04:05:00;;;;;;;;;;;;;;;;;;4980428;28;19928;-66
2023/03/04 04:07:25;;;;;;;;;;;;;;;;;;4977717;28;19952;-66
2023/03/04 04:09:53;;;;;;;;;;;;;;;;;;4978211;28;19928;-67
2023/03/04 04:12:18;;;;;;;;;;;;;;;;;;4995742;28;19917;-67
2023/03/04 04:14:44;;;;;;;;;;;;;;;;;;4985739;28;19920;-66
2023/03/04 04:17:12;;;;;;;;;;;;;;;;;;4975986;28;20421;-67
2023/03/04 04:19:39;;;;;;;;;;;;;;;;;;4980269;28;19972;-68
2023/03/04 04:22:04;;;;;;;;;;;;;;;;;;4983548;28;20474;-67
2023/03/04 04:24:32;;;;;;;;;;;;;;;;;;4962031;28;19971;-67
2023/03/04 04:27:00;;;;;;;;;;;;;;;;;;4975581;28;20476;-67
2023/03/04 04:29:26;;;;;;;;;;;;;;;;;;4961340;28;20262;-66
2023/03/04 04:31:54;;;;;;;;;;;;;;;;;;4995088;28;19929;-66
2023/03/04 04:34:19;;;;;;;;;;;;;;;;;;4979372;28;20042;-67
2023/03/04 04:36:49;;;;;;;;;;;;;;;;;;4961976;28;20443;-68
2023/03/04 04:39:15;;;;;;;;;;;;;;;;;;4997198;28;19917;-66
2023/03/04 04:41:42;;;;;;;;;;;;;;;;;;4977014;28;20242;-66
2023/03/04 04:44:11;;;;;;;;;;;;;;;;;;4978308;28;19922;-67
2023/03/04 04:46:41;;;;;;;;;;;;;;;;;;4976364;28;20003;-66
2023/03/04 04:49:10;;;;;;;;;;;;;;;;;;4960348;28;21381;-66
2023/03/04 04:51:35;;;;;;;;;;;;;;;;;;4977887;28;20303;-66
2023/03/04 04:54:00;;;;;;;;;;;;;;;;;;4995829;28;21019;-66
2023/03/04 04:56:26;;;;;;;;;;;;;;;;;;4996233;28;20189;-66
2023/03/04 04:58:53;;;;;;;;;;;;;;;;;;4996138;28;19925;-68
2023/03/04 05:01:19;;;;;;;;;;;;;;;;;;4983124;28;19968;-66
2023/03/04 05:03:44;;;;;;;;;;;;;;;;;;4976440;28;19921;-66
2023/03/04 05:06:11;;;;;;;;;;;;;;;;;;4996465;28;19979;-67
2023/03/04 05:08:37;;;;;;;;;;;;;;;;;;4967264;28;19920;-66
2023/03/04 05:11:05;;;;;;;;;;;;;;;;;;4995915;28;20443;-66
2023/03/04 05:13:30;;;;;;;;;;;;;;;;;;4963243;28;19921;-66
2023/03/04 05:15:55;;;;;;;;;;;;;;;;;;4978685;28;19921;-68
2023/03/04 05:18:21;;;;;;;;;;;;;;;;;;4960207;28;19964;-66
2023/03/04 05:20:46;;;;;;;;;;;;;;;;;;4996822;28;19917;-66
2023/03/04 05:23:13;;;;;;;;;;;;;;;;;;4981091;28;19952;-67
2023/03/04 05:25:39;;;;;;;;;;;;;;;;;;4999101;28;19971;-67
2023/03/04 05:28:11;;;;;;;;;;;;;;;;;;4980412;28;19929;-66
2023/03/04 05:30:36;;;;;;;;;;;;;;;;;;4987430;28;19926;-67
2023/03/04 05:33:01;;;;;;;;;;;;;;;;;;4979733;28;19937;-66
2023/03/04 05:35:27;;;;;;;;;;;;;;;;;;4981872;28;20711;-67
2023/03/04 05:37:52;;;;;;;;;;;;;;;;;;4964095;28;20010;-68
2023/03/04 05:40:20;;;;;;;;;;;;;;;;;;4964010;28;20012;-66
2023/03/04 05:42:45;;;;;;;;;;;;;;;;;;4964842;28;19925;-67
2023/03/04 05:45:11;;;;;;;;;;;;;;;;;;4998366;28;19918;-66
2023/03/04 05:47:38;;;;;;;;;;;;;;;;;;4983495;28;20627;-66
2023/03/04 05:50:03;;;;;;;;;;;;;;;;;;4962201;28;19948;-66
2023/03/04 05:52:33;;;;;;;;;;;;;;;;;;4980453;28;19921;-65
2023/03/04 05:54:58;;;;;;;;;;;;;;;;;;4964214;28;19982;-66
2023/03/04 05:57:29;;;;;;;;;;;;;;;;;;4984596;28;20388;-66
2023/03/04 05:59:54;;;;;;;;;;;;;;;;;;4963689;28;19997;-65
2023/03/04 06:02:24;;;;;;;;;;;;;;;;;;4997024;28;20006;-66
2023/03/04 06:04:53;;;;;;;;;;;;;;;;;;4981767;28;20015;-66
2023/03/04 06:07:23;;;;;;;;;;;;;;;;;;4969850;28;19964;-65
2023/03/04 06:09:52;;;;;;;;;;;;;;;;;;4998533;28;20521;-66
2023/03/04 06:12:17;;;;;;;;;;;;;;;;;;4980133;28;19917;-65
2023/03/04 06:14:42;;;;;;;;;;;;;;;;;;4983220;28;19922;-65
2023/03/04 06:17:07;;;;;;;;;;;;;;;;;;4977956;28;20683;-65
2023/03/04 06:19:33;;;;;;;;;;;;;;;;;;4996453;28;20008;-66
2023/03/04 06:21:58;;;;;;;;;;;;;;;;;;4978901;28;19921;-65
2023/03/04 06:24:23;;;;;;;;;;;;;;;;;;4981598;28;20444;-66
2023/03/04 06:26:48;;;;;;;;;;;;;;;;;;4995393;28;20412;-66
2023/03/04 06:29:14;;;;;;;;;;;;;;;;;;4972516;28;20013;-64
2023/03/04 06:31:41;;;;;;;;;;;;;;;;;;4973254;28;19939;-65
2023/03/04 06:34:07;;;;;;;;;;;;;;;;;;4993473;28;19921;-65
2023/03/04 06:36:34;;;;;;;;;;;;;;;;;;4972643;28;19932;-66
2023/03/04 06:39:09;;;;;;;;;;;;;;;;;;4960742;28;19936;-65
2023/03/04 06:41:34;;;;;;;;;;;;;;;;;;4981283;28;20592;-66
2023/03/04 06:43:59;;;;;;;;;;;;;;;;;;4998306;28;20028;-66
2023/03/04 06:46:27;;;;;;;;;;;;;;;;;;4978886;28;20014;-66
2023/03/04 06:48:57;;;;;;;;;;;;;;;;;;4980002;28;19929;-66
2023/03/04 06:51:22;;;;;;;;;;;;;;;;;;4985663;28;20599;-66
2023/03/04 06:53:48;;;;;;;;;;;;;;;;;;4980743;28;19944;-66
2023/03/04 06:56:16;;;;;;;;;;;;;;;;;;4978567;28;20039;-66
2023/03/04 06:58:41;;;;;;;;;;;;;;;;;;4963596;28;20369;-66
2023/03/04 07:01:10;;;;;;;;;;;;;;;;;;4962396;28;20048;-67
2023/03/04 07:03:35;;;;;;;;;;;;;;;;;;4975914;28;19925;-67
2023/03/04 07:06:02;;;;;;;;;;;;;;;;;;4996633;28;20400;-66
2023/03/04 07:08:30;;;;;;;;;;;;;;;;;;4980969;28;19939;-66
2023/03/04 07:10:55;;;;;;;;;;;;;;;;;;4980411;28;19925;-65
2023/03/04 07:13:26;;;;;;;;;;;;;;;;;;4965405;28;20082;-66
2023/03/04 07:15:51;;;;;;;;;;;;;;;;;;4974377;28;20721;-66
2023/03/04 07:18:29;;;;;;;;;;;;;;;;;;4976545;28;20000;-65
2023/03/04 07:20:54;;;;;;;;;;;;;;;;;;4983803;28;20149;-65
2023/03/04 07:23:19;;;;;;;;;;;;;;;;;;4975944;28;20430;-66
2023/03/04 07:25:47;;;;;;;;;;;;;;;;;;4990792;28;19917;-66
2023/03/04 07:28:12;;;;;;;;;;;;;;;;;;4982914;28;20475;-65
2023/03/04 07:30:37;;;;;;;;;;;;;;;;;;4977981;28;19929;-65
2023/03/04 07:33:05;;;;;;;;;;;;;;;;;;4955843;28;20994;-65
2023/03/04 07:35:33;;;;;;;;;;;;;;;;;;4978915;28;20163;-65
2023/03/04 07:37:59;;;;;;;;;;;;;;;;;;4976911;28;19926;-65
2023/03/04 07:40:29;;;;;;;;;;;;;;;;;;4979261;28;19921;-65
2023/03/04 07:42:57;;;;;;;;;;;;;;;;;;4977751;28;20001;-65
2023/03/04 07:45:22;;;;;;;;;;;;;;;;;;4969487;28;19921;-66
2023/03/04 07:47:50;;;;;;;;;;;;;;;;;;4984606;28;19928;-66
2023/03/04 07:50:15;;;;;;;;;;;;;;;;;;4977818;28;19918;-65
2023/03/04 07:52:41;;;;;;;;;;;;;;;;;;4977480;28;19921;-65
2023/03/04 07:55:06;;;;;;;;;;;;;;;;;;4961252;28;19922;-66
2023/03/04 07:57:31;;;;;;;;;;;;;;;;;;4978756;28;20010;-68
2023/03/04 07:59:56;;;;;;;;;;;;;;;;;;4979156;28;20329;-66
2023/03/04 08:02:22;;;;;;;;;;;;;;;;;;4978027;28;19918;-67
2023/03/04 08:04:49;;;;;;;;;;;;;;;;;;4968087;28;19921;-66
2023/03/04 08:07:15;;;;;;;;;;;;;;;;;;4976116;28;20675;-66
2023/03/04 08:09:40;;;;;;;;;;;;;;;;;;4982239;28;19927;-67
2023/03/04 08:12:05;;;;;;;;;;;;;;;;;;4996508;28;20520;-67
2023/03/04 08:14:33;;;;;;;;;;;;;;;;;;4996112;28;19924;-66
2023/03/04 08:17:01;;;;;;;;;;;;;;;;;;4975873;28;20044;-66
2023/03/04 08:19:26;;;;;;;;;;;;;;;;;;4958144;28;20561;-66
2023/03/04 08:21:54;;;;;;;;;;;;;;;;;;4960693;28;20071;-66
2023/03/04 08:24:19;;;;;;;;;;;;;;;;;;4976670;28;19921;-66
2023/03/04 08:26:45;;;;;;;;;;;;;;;;;;4974926;28;20411;-66
2023/03/04 08:29:13;;;;;;;;;;;;;;;;;;4975845;28;19929;-64
2023/03/04 08:31:38;;;;;;;;;;;;;;;;;;4960849;28;19929;-65
2023/03/04 08:34:03;;;;;;;;;;;;;;;;;;4974161;28;19949;-65
2023/03/04 08:36:29;;;;;;;;;;;;;;;;;;4972723;28;19928;-66
2023/03/04 08:38:54;;;;;;;;;;;;;;;;;;4980267;28;20694;-65
2023/03/04 08:41:19;;;;;;;;;;;;;;;;;;4970484;28;19918;-67
2023/03/04 08:43:47;;;;;;;;;;;;;;;;;;4974122;28;19969;-67
2023/03/04 08:49:06;;;;;;;;;;;;;;;;;;4978345;28;20608;-65
2023/03/04 08:51:34;;;;;;;;;;;;;;;;;;4972296;28;20044;-65
2023/03/04 08:54:02;;;;;;;;;;;;;;;;;;4955243;28;19979;-67
2023/03/04 08:56:27;;;;;;;;;;;;;;;;;;4968745;28;20476;-65
2023/03/04 08:58:52;;;;;;;;;;;;;;;;;;4980268;28;20021;-66
2023/03/04 09:01:21;;;;;;;;;;;;;;;;;;4977291;28;20403;-66
2023/03/04 09:03:48;;;;;;;;;;;;;;;;;;4970336;28;20473;-65
2023/03/04 09:06:14;;;;;;;;;;;;;;;;;;4960467;28;20123;-66
2023/03/04 09:08:42;;;;;;;;;;;;;;;;;;4979956;28;19918;-68
2023/03/04 09:11:10;;;;;;;;;;;;;;;;;;4964213;28;20015;-66
2023/03/04 09:13:35;;;;;;;;;;;;;;;;;;4985453;28;19922;-66
2023/03/04 09:16:00;;;;;;;;;;;;;;;;;;4983779;28;19917;-66
2023/03/04 09:18:26;;;;;;;;;;;;;;;;;;4977093;28;20525;-65
2023/03/04 09:20:51;;;;;;;;;;;;;;;;;;4978066;28;19918;-66
2023/03/04 09:23:16;;;;;;;;;;;;;;;;;;4979160;28;19922;-66
2023/03/04 09:25:42;;;;;;;;;;;;;;;;;;4974446;28;20406;-67
2023/03/04 09:28:07;;;;;;;;;;;;;;;;;;4959300;28;19949;-69
2023/03/04 09:30:38;;;;;;;;;;;;;;;;;;4965227;28;19922;-67
2023/03/04 09:33:03;;;;;;;;;;;;;;;;;;4978116;28;19922;-67
2023/03/04 09:35:29;;;;;;;;;;;;;;;;;;4977540;28;19976;-68
2023/03/04 09:37:54;;;;;;;;;;;;;;;;;;4976606;28;19937;-67
2023/03/04 09:40:22;;;;;;;;;;;;;;;;;;4960199;28;19922;-66
2023/03/04 09:42:47;;;;;;;;;;;;;;;;;;4959865;28;20051;-67
2023/03/04 09:45:12;;;;;;;;;;;;;;;;;;4960442;28;19921;-68
2023/03/04 09:47:37;;;;;;;;;;;;;;;;;;4958067;28;20278;-66
2023/03/04 09:50:05;;;;;;;;;;;;;;;;;;4972846;28;19959;-66
2023/03/04 09:52:33;;;;;;;;;;;;;;;;;;4957451;28;20368;-67
2023/03/04 09:55:01;;;;;;;;;;;;;;;;;;4976277;28;19952;-67
2023/03/04 09:57:27;;;;;;;;;;;;;;;;;;4975002;28;19928;-65
2023/03/04 09:59:52;;;;;;;;;;;;;;;;;;4977041;28;20006;-69
2023/03/04 10:02:18;;;;;;;;;;;;;;;;;;4983342;28;20312;-68
2023/03/04 10:04:45;;;;;;;;;;;;;;;;;;4959103;28;20387;-66
2023/03/04 10:10:30;;;;;;;;;;;;;;;;;;4976194;28;19975;-67
2023/03/04 10:12:55;;;;;;;;;;;;;;;;;;4958844;28;20324;-66
2023/03/04 10:15:20;;;;;;;;;;;;;;;;;;4973872;28;20247;-66
2023/03/04 10:17:45;;;;;;;;;;;;;;;;;;4982417;28;20339;-65
2023/03/04 10:20:11;;;;;;;;;;;;;;;;;;4956919;28;19918;-66
2023/03/04 10:22:39;;;;;;;;;;;;;;;;;;4958956;28;19918;-66
2023/03/04 10:25:04;;;;;;;;;;;;;;;;;;4977451;28;19937;-67
2023/03/04 10:30:46;;;;;;;;;;;;;;;;;;4978534;28;19944;-67
2023/03/04 10:33:11;;;;;;;;;;;;;;;;;;4975465;28;19929;-67
2023/03/04 10:35:39;;;;;;;;;;;;;;;;;;4976334;28;19918;-68
2023/03/04 10:38:04;;;;;;;;;;;;;;;;;;4975689;28;20066;-68
2023/03/04 10:40:32;;;;;;;;;;;;;;;;;;4973695;28;20392;-66
2023/03/04 10:43:05;;;;;;;;;;;;;;;;;;4973679;28;20389;-68
2023/03/04 10:45:34;;;;;;;;;;;;;;;;;;4975547;28;20337;-66
2023/03/04 10:48:02;;;;;;;;;;;;;;;;;;4990378;28;20485;-65
2023/03/04 10:50:30;;;;;;;;;;;;;;;;;;4975961;28;19918;-68
2023/03/04 10:52:56;;;;;;;;;;;;;;;;;;4980671;28;20161;-70
2023/03/04 10:55:21;;;;;;;;;;;;;;;;;;4976336;28;20377;-67
2023/03/04 10:57:46;;;;;;;;;;;;;;;;;;4978859;28;21553;-67
2023/03/04 11:00:15;;;;;;;;;;;;;;;;;;4967121;28;19921;-68
2023/03/04 11:02:45;;;;;;;;;;;;;;;;;;4974492;28;20096;-65
2023/03/04 11:05:13;;;;;;;;;;;;;;;;;;4963423;28;19921;-66
2023/03/04 11:07:38;;;;;;;;;;;;;;;;;;4974566;28;20249;-68
2023/03/04 11:10:03;;;;;;;;;;;;;;;;;;4956036;28;20369;-70
2023/03/04 11:12:28;;;;;;;;;;;;;;;;;;4965583;28;19921;-68
2023/03/04 11:14:54;;;;;;;;;;;;;;;;;;4976726;28;20824;-67
2023/03/04 11:17:28;;;;;;;;;;;;;;;;;;4973628;28;21007;-65
2023/03/04 11:19:53;;;;;;;;;;;;;;;;;;4961551;28;20305;-70
2023/03/04 11:22:21;;;;;;;;;;;;;;;;;;4970652;28;19922;-66
2023/03/04 11:24:46;;;;;;;;;;;;;;;;;;4975956;28;19921;-67
2023/03/04 11:27:11;;;;;;;;;;;;;;;;;;4974416;28;21777;-68
2023/03/04 11:29:39;;;;;;;;;;;;;;;;;;4951099;28;19922;-66
2023/03/04 11:32:07;;;;;;;;;;;;;;;;;;4972154;28;19926;-66
2023/03/04 11:34:35;;;;;;;;;;;;;;;;;;4981038;28;19917;-67
2023/03/04 11:37:03;;;;;;;;;;;;;;;;;;4983027;28;19925;-68
2023/03/04 11:39:37;;;;;;;;;;;;;;;;;;5044219;27;19935;-66
2023/03/04 11:42:02;;;;;;;;;;;;;;;;;;5022930;28;19921;-67
2023/03/04 11:44:27;;;;;;;;;;;;;;;;;;5076549;27;19997;-68
2023/03/04 11:46:53;;;;;;;;;;;;;;;;;;5023018;28;19921;-67
2023/03/04 11:49:18;;;;;;;;;;;;;;;;;;5040796;28;20075;-72
2023/03/04 11:51:46;;;;;;;;;;;;;;;;;;5040335;28;19921;-68
2023/03/04 11:54:11;;;;;;;;;;;;;;;;;;5042260;28;19959;-68
2023/03/04 11:56:36;;;;;;;;;;;;;;;;;;5042475;28;20173;-66
2023/03/04 11:59:03;;;;;;;;;;;;;;;;;;5041662;28;19968;-68
2023/03/04 12:01:28;;;;;;;;;;;;;;;;;;5041822;28;20488;-68
2023/03/04 12:03:53;;;;;;;;;;;;;;;;;;5018046;28;20257;-67
2023/03/04 12:06:19;;;;;;;;;;;;;;;;;;5039406;28;20565;-68
2023/03/04 12:08:44;;;;;;;;;;;;;;;;;;5043264;28;20392;-70
2023/03/04 12:11:12;;;;;;;;;;;;;;;;;;5041190;28;19970;-69
2023/03/04 12:13:37;;;;;;;;;;;;;;;;;;5041984;28;19932;-71
2023/03/04 12:16:03;;;;;;;;;;;;;;;;;;5041461;28;19943;-67
2023/03/04 12:18:30;;;;;;;;;;;;;;;;;;5020157;28;20548;-66
2023/03/04 12:20:56;;;;;;;;;;;;;;;;;;5043350;28;19987;-65
2023/03/04 12:23:21;;;;;;;;;;;;;;;;;;5018954;28;20458;-65
2023/03/04 12:25:46;;;;;;;;;;;;;;;;;;5043771;28;20560;-67
2023/03/04 12:28:14;;;;;;;;;;;;;;;;;;5042883;28;20523;-66
2023/03/04 12:30:39;;;;;;;;;;;;;;;;;;5036517;28;19924;-68
2023/03/04 12:33:07;;;;;;;;;;;;;;;;;;5039144;28;20006;-67
2023/03/04 12:35:32;;;;;;;;;;;;;;;;;;5039471;28;20582;-66
2023/03/04 12:38:00;;;;;;;;;;;;;;;;;;5014218;28;19947;-67
2023/03/04 12:40:28;;;;;;;;;;;;;;;;;;5017591;28;19920;-69
2023/03/04 12:42:54;;;;;;;;;;;;;;;;;;5016333;28;19932;-67
2023/03/04 12:45:24;;;;;;;;;;;;;;;;;;5021277;28;20052;-67
2023/03/04 12:47:49;;;;;;;;;;;;;;;;;;5030991;28;19970;-68
2023/03/04 12:50:17;;;;;;;;;;;;;;;;;;5007035;28;19921;-69
2023/03/04 12:52:43;;;;;;;;;;;;;;;;;;5015426;28;19932;-68
2023/03/04 12:55:08;;;;;;;;;;;;;;;;;;5029639;28;20317;-67
2023/03/04 12:57:33;;;;;;;;;;;;;;;;;;5027507;28;21930;-71
2023/03/04 12:59:59;;;;;;;;;;;;;;;;;;5030068;28;19920;-69
2023/03/04 13:02:27;;;;;;;;;;;;;;;;;;5023536;28;20328;-67
2023/03/04 13:04:52;;;;;;;;;;;;;;;;;;5010630;28;20803;-68
2023/03/04 13:07:17;;;;;;;;;;;;;;;;;;5028206;28;19990;-68
2023/03/04 13:09:42;;;;;;;;;;;;;;;;;;5028642;28;20767;-68
2023/03/04 13:12:08;;;;;;;;;;;;;;;;;;5027315;28;20355;-68
2023/03/04 13:14:36;;;;;;;;;;;;;;;;;;5007736;28;19947;-67
2023/03/04 13:17:04;;;;;;;;;;;;;;;;;;5023865;28;20089;-68
2023/03/04 13:19:29;;;;;;;;;;;;;;;;;;5004206;28;19924;-68
2023/03/04 13:21:57;;;;;;;;;;;;;;;;;;5003170;28;20511;-68
2023/03/04 13:24:22;;;;;;;;;;;;;;;;;;5028923;28;19920;-67
2023/03/04 13:26:48;;;;;;;;;;;;;;;;;;5024329;28;19977;-68
2023/03/04 13:29:16;;;;;;;;;;;;;;;;;;5006147;28;19921;-67
2023/03/04 13:31:41;;;;;;;;;;;;;;;;;;5024429;28;20002;-67
2023/03/04 13:34:18;;;;;;;;;;;;;;;;;;5008453;28;19924;-67
2023/03/04 13:36:46;;;;;;;;;;;;;;;;;;5023038;28;20294;-66
2023/03/04 13:39:14;;;;;;;;;;;;;;;;;;5025315;28;19925;-67
2023/03/04 13:41:42;;;;;;;;;;;;;;;;;;5025756;28;19916;-68
2023/03/04 13:44:07;;;;;;;;;;;;;;;;;;5022458;28;19923;-67
2023/03/04 13:46:35;;;;;;;;;;;;;;;;;;5025613;28;20368;-67
2023/03/04 13:49:03;;;;;;;;;;;;;;;;;;5027159;28;19925;-67
2023/03/04 13:51:28;;;;;;;;;;;;;;;;;;5022054;28;20595;-69
2023/03/04 13:53:54;;;;;;;;;;;;;;;;;;5028402;28;19933;-67
2023/03/04 13:56:19;;;;;;;;;;;;;;;;;;5024603;28;19921;-66
2023/03/04 13:58:47;;;;;;;;;;;;;;;;;;5002880;28;20017;-67
2023/03/04 14:01:12;;;;;;;;;;;;;;;;;;5005767;28;19946;-67
2023/03/04 14:03:37;;;;;;;;;;;;;;;;;;5019826;28;19921;-66
2023/03/04 14:06:03;;;;;;;;;;;;;;;;;;5023403;28;19921;-67
2023/03/04 14:08:28;;;;;;;;;;;;;;;;;;5007732;28;19943;-65
2023/03/04 14:10:56;;;;;;;;;;;;;;;;;;5008112;28;20367;-65
2023/03/04 14:13:24;;;;;;;;;;;;;;;;;;5018737;28;21728;-68
2023/03/04 14:15:49;;;;;;;;;;;;;;;;;;5024352;28;19954;-70
2023/03/04 14:18:15;;;;;;;;;;;;;;;;;;5021554;28;20376;-71
2023/03/04 14:20:41;;;;;;;;;;;;;;;;;;5026932;28;19928;-67
2023/03/04 14:23:09;;;;;;;;;;;;;;;;;;5024850;28;19916;-67
2023/03/04 14:25:35;;;;;;;;;;;;;;;;;;5024136;28;19924;-70
2023/03/04 14:28:00;;;;;;;;;;;;;;;;;;5019159;28;19920;-67
2023/03/04 14:30:28;;;;;;;;;;;;;;;;;;5021443;28;20691;-68
2023/03/04 14:32:59;;;;;;;;;;;;;;;;;;5027791;28;19931;-69
2023/03/04 14:35:28;;;;;;;;;;;;;;;;;;5004309;28;19982;-67
2023/03/04 14:37:53;;;;;;;;;;;;;;;;;;5021037;28;19925;-69
2023/03/04 14:40:19;;;;;;;;;;;;;;;;;;5005284;28;19917;-68
2023/03/04 14:42:45;;;;;;;;;;;;;;;;;;5023158;28;19972;-67
2023/03/04 14:45:13;;;;;;;;;;;;;;;;;;5007233;28;19917;-69
2023/03/04 14:47:38;;;;;;;;;;;;;;;;;;5018890;28;20636;-67
2023/03/04 14:50:06;;;;;;;;;;;;;;;;;;4997708;28;19920;-66
2023/03/04 14:52:31;;;;;;;;;;;;;;;;;;5001091;28;20071;-67
2023/03/04 14:54:57;;;;;;;;;;;;;;;;;;5016720;28;19921;-67
2023/03/04 14:57:22;;;;;;;;;;;;;;;;;;5018247;28;20699;-67
2023/03/04 14:59:48;;;;;;;;;;;;;;;;;;4999760;28;19920;-66
2023/03/04 15:02:13;;;;;;;;;;;;;;;;;;5018463;28;19933;-67
2023/03/04 15:04:38;;;;;;;;;;;;;;;;;;5016986;28;20018;-66
2023/03/04 15:07:06;;;;;;;;;;;;;;;;;;5018830;28;21545;-66
2023/03/04 15:09:35;;;;;;;;;;;;;;;;;;5017919;28;20017;-67
2023/03/04 15:12:02;;;;;;;;;;;;;;;;;;5000984;28;19925;-65
2023/03/04 15:17:18;;;;;;;;;;;;;;;;;;5018098;28;19974;-66
2023/03/04 15:19:43;;;;;;;;;;;;;;;;;;5024390;28;20441;-66
2023/03/04 15:22:11;;;;;;;;;;;;;;;;;;5004942;28;20058;-67
2023/03/04 15:24:39;;;;;;;;;;;;;;;;;;5005254;28;19917;-67
2023/03/04 15:27:06;;;;;;;;;;;;;;;;;;5021795;28;20012;-69
2023/03/04 15:29:32;;;;;;;;;;;;;;;;;;5001708;28;19929;-68
2023/03/04 15:32:00;;;;;;;;;;;;;;;;;;5006352;28;19916;-66
2023/03/04 15:34:27;;;;;;;;;;;;;;;;;;5023885;28;19959;-66
2023/03/04 15:36:55;;;;;;;;;;;;;;;;;;5022757;28;19921;-66
2023/03/04 15:39:22;;;;;;;;;;;;;;;;;;5020777;28;20495;-67
2023/03/04 15:41:49;;;;;;;;;;;;;;;;;;5021881;28;19967;-69
2023/03/04 15:44:17;;;;;;;;;;;;;;;;;;5023026;28;19927;-65
2023/03/04 15:46:42;;;;;;;;;;;;;;;;;;5025722;28;20650;-67
2023/03/04 15:49:08;;;;;;;;;;;;;;;;;;5004544;28;20058;-64
2023/03/04 15:51:35;;;;;;;;;;;;;;;;;;5024764;28;19927;-67
2023/03/04 15:54:03;;;;;;;;;;;;;;;;;;5002321;28;19932;-67
2023/03/04 15:56:28;;;;;;;;;;;;;;;;;;5004450;28;20014;-66
2023/03/04 15:58:56;;;;;;;;;;;;;;;;;;4995909;28;20595;-66
2023/03/04 16:01:21;;;;;;;;;;;;;;;;;;5018009;28;20151;-65
2023/03/04 16:03:47;;;;;;;;;;;;;;;;;;4997528;28;20567;-65
2023/03/04 16:06:16;;;;;;;;;;;;;;;;;;5020871;28;19921;-67
2023/03/04 16:08:44;;;;;;;;;;;;;;;;;;5019867;28;20308;-65
2023/03/04 16:11:12;;;;;;;;;;;;;;;;;;5022015;28;20015;-66
2023/03/04 16:13:37;;;;;;;;;;;;;;;;;;5025640;28;20693;-65
2023/03/04 16:16:03;;;;;;;;;;;;;;;;;;5021857;28;19928;-67
2023/03/04 16:18:37;;;;;;;;;;;;;;;;;;5022770;28;19925;-65
2023/03/04 16:21:03;;;;;;;;;;;;;;;;;;5024675;28;19939;-65
2023/03/04 16:23:31;;;;;;;;;;;;;;;;;;5020600;28;19963;-66
2023/03/04 16:25:56;;;;;;;;;;;;;;;;;;5008391;28;19921;-64
2023/03/04 16:28:24;;;;;;;;;;;;;;;;;;5007671;28;20035;-65
2023/03/04 16:30:52;;;;;;;;;;;;;;;;;;5022982;28;19917;-66
2023/03/04 16:36:35;;;;;;;;;;;;;;;;;;5028071;28;20454;-66
2023/03/04 16:39:01;;;;;;;;;;;;;;;;;;5025500;28;20572;-65
2023/03/04 16:41:27;;;;;;;;;;;;;;;;;;5022093;28;19916;-66
2023/03/04 16:43:55;;;;;;;;;;;;;;;;;;5007553;28;20077;-65
2023/03/04 16:46:20;;;;;;;;;;;;;;;;;;5005285;28;19925;-66
2023/03/04 16:49:04;;;;;;;;;;;;;;;;;;5026452;28;20553;-66
2023/03/04 16:51:32;;;;;;;;;;;;;;;;;;5023326;28;20217;-67
2023/03/04 16:54:00;;;;;;;;;;;;;;;;;;5021429;28;22552;-65
2023/03/04 16:56:25;;;;;;;;;;;;;;;;;;5022456;28;19920;-68